sensor_id;sensor_type;location;lat;lon;timestamp;P1;durP1;ratioP1;P2;durP2;ratioP2
15486;SDS011;7845;53.698;10.078;2023-12-14T00:01:17;0.00;;;0.00;;
15486;SDS011;7845;53.698;10.078;2023-12-14T00:03:43;0.00;;;0.00;;
15486;SDS011;7845;53.698;10.078;2023-12-14T00:06:11;1.00;;;0.00;;
15486;SDS011;7845;53.698;10.078;2023-12-14T00:08:40;0.75;;;0.00;;
15486;SDS011;7845;53.698;10.078;2023-12-14T00:11:06;0.00;;;0.00;;
15486;SDS011;7845;53.698;10.078;2023-12-14T00:13:33;1.00;;;0.50;;
15486;SDS011;7845;53.698;10.078;2023-12-14T00:15:58;0.00;;;0.00;;
15486;SDS011;7845;53.698;10.078;2023-12-14T00:18:24;0.00;;;0.00;;
15486;SDS011;7845;53.698;10.078;2023-12-14T00:20:50;0.00;;;0.00;;
15486;SDS011;7845;53.698;10.078;2023-12-14T00:23:15;0.00;;;0.00;;
15486;SDS011;7845;53.698;10.078;2023-12-14T00:25:46;0.75;;;0.00;;
15486;SDS011;7845;53.698;10.078;2023-12-14T00:28:12;0.00;;;0.00;;
15486;SDS011;7845;53.698;10.078;2023-12-14T00:30:38;0.00;;;0.00;;
15486;SDS011;7845;53.698;10.078;2023-12-14T00:33:03;0.00;;;0.00;;
15486;SDS011;7845;53.698;10.078;2023-12-14T00:35:28;0.00;;;0.00;;
15486;SDS011;7845;53.698;10.078;2023-12-14T00:37:57;0.00;;;0.00;;
15486;SDS011;7845;53.698;10.078;2023-12-14T00:40:22;0.75;;;0.00;;
15486;SDS011;7845;53.698;10.078;2023-12-14T00:42:50;0.00;;;0.00;;
15486;SDS011;7845;53.698;10.078;2023-12-14T00:45:18;0.00;;;0.00;;
15486;SDS011;7845;53.698;10.078;2023-12-14T00:47:43;0.00;;;0.00;;
15486;SDS011;7845;53.698;10.078;2023-12-14T00:50:09;0.00;;;0.00;;
15486;SDS011;7845;53.698;10.078;2023-12-14T00:52:34;0.00;;;0.00;;
15486;SDS011;7845;53.698;10.078;2023-12-14T00:55:00;0.00;;;0.00;;
15486;SDS011;7845;53.698;10.078;2023-12-14T00:57:25;0.67;;;0.67;;
15486;SDS011;7845;53.698;10.078;2023-12-14T00:59:50;0.00;;;0.00;;
15486;SDS011;7845;53.698;10.078;2023-12-14T01:02:16;0.00;;;0.00;;
15486;SDS011;7845;53.698;10.078;2023-12-14T01:04:41;0.33;;;0.00;;
15486;SDS011;7845;53.698;10.078;2023-12-14T01:07:07;0.25;;;0.00;;
15486;SDS011;7845;53.698;10.078;2023-12-14T01:09:33;0.00;;;0.00;;
15486;SDS011;7845;53.698;10.078;2023-12-14T01:11:58;1.00;;;0.00;;
15486;SDS011;7845;53.698;10.078;2023-12-14T01:14:26;0.67;;;0.00;;
15486;SDS011;7845;53.698;10.078;2023-12-14T01:16:51;0.00;;;0.00;;
15486;SDS011;7845;53.698;10.078;2023-12-14T01:19:17;0.00;;;0.00;;
15486;SDS011;7845;53.698;10.078;2023-12-14T01:21:43;0.00;;;0.00;;
15486;SDS011;7845;53.698;10.078;2023-12-14T01:24:08;0.00;;;0.00;;
15486;SDS011;7845;53.698;10.078;2023-12-14T01:26:34;0.00;;;0.00;;
15486;SDS011;7845;53.698;10.078;2023-12-14T01:28:59;0.00;;;0.00;;
15486;SDS011;7845;53.698;10.078;2023-12-14T01:31:25;1.00;;;1.00;;
15486;SDS011;7845;53.698;10.078;2023-12-14T01:33:50;1.00;;;0.00;;
15486;SDS011;7845;53.698;10.078;2023-12-14T01:36:23;1.50;;;1.00;;
15486;SDS011;7845;53.698;10.078;2023-12-14T01:38:52;1.00;;;0.00;;
15486;SDS011;7845;53.698;10.078;2023-12-14T01:41:21;0.00;;;0.00;;
15486;SDS011;7845;53.698;10.078;2023-12-14T01:43:46;1.00;;;1.00;;
15486;SDS011;7845;53.698;10.078;2023-12-14T01:46:12;0.00;;;0.00;;
15486;SDS011;7845;53.698;10.078;2023-12-14T01:48:38;0.00;;;0.00;;
15486;SDS011;7845;53.698;10.078;2023-12-14T01:51:04;0.00;;;0.00;;
15486;SDS011;7845;53.698;10.078;2023-12-14T01:53:29;0.00;;;0.00;;
15486;SDS011;7845;53.698;10.078;2023-12-14T01:55:55;1.00;;;0.00;;
15486;SDS011;7845;53.698;10.078;2023-12-14T01:58:22;0.50;;;0.50;;
15486;SDS011;7845;53.698;10.078;2023-12-14T02:03:48;2.50;;;1.00;;
15486;SDS011;7845;53.698;10.078;2023-12-14T02:06:15;1.00;;;0.00;;
15486;SDS011;7845;53.698;10.078;2023-12-14T02:08:41;0.00;;;0.00;;
15486;SDS011;7845;53.698;10.078;2023-12-14T02:11:08;0.00;;;0.00;;
15486;SDS011;7845;53.698;10.078;2023-12-14T02:13:33;2.50;;;0.00;;
15486;SDS011;7845;53.698;10.078;2023-12-14T02:15:59;1.50;;;1.00;;
15486;SDS011;7845;53.698;10.078;2023-12-14T02:18:24;0.00;;;0.00;;
15486;SDS011;7845;53.698;10.078;2023-12-14T02:20:50;0.00;;;0.00;;
15486;SDS011;7845;53.698;10.078;2023-12-14T02:23:15;1.00;;;0.33;;
15486;SDS011;7845;53.698;10.078;2023-12-14T02:25:40;0.33;;;0.00;;
15486;SDS011;7845;53.698;10.078;2023-12-14T02:28:06;1.00;;;0.00;;
15486;SDS011;7845;53.698;10.078;2023-12-14T02:30:31;1.00;;;1.00;;
15486;SDS011;7845;53.698;10.078;2023-12-14T02:32:56;0.00;;;0.00;;
15486;SDS011;7845;53.698;10.078;2023-12-14T02:35:22;0.67;;;0.00;;
15486;SDS011;7845;53.698;10.078;2023-12-14T02:37:48;0.00;;;0.00;;
15486;SDS011;7845;53.698;10.078;2023-12-14T02:40:13;1.00;;;1.00;;
15486;SDS011;7845;53.698;10.078;2023-12-14T02:42:39;0.00;;;0.00;;
15486;SDS011;7845;53.698;10.078;2023-12-14T02:45:04;4.00;;;1.00;;
15486;SDS011;7845;53.698;10.078;2023-12-14T02:47:30;0.25;;;0.25;;
15486;SDS011;7845;53.698;10.078;2023-12-14T02:49:56;0.00;;;0.00;;
15486;SDS011;7845;53.698;10.078;2023-12-14T02:52:21;0.00;;;0.00;;
15486;SDS011;7845;53.698;10.078;2023-12-14T02:54:50;0.00;;;0.00;;
15486;SDS011;7845;53.698;10.078;2023-12-14T02:57:15;0.00;;;0.00;;
15486;SDS011;7845;53.698;10.078;2023-12-14T02:59:40;0.67;;;0.00;;
15486;SDS011;7845;53.698;10.078;2023-12-14T03:02:05;2.67;;;0.33;;
15486;SDS011;7845;53.698;10.078;2023-12-14T03:04:31;1.00;;;0.67;;
15486;SDS011;7845;53.698;10.078;2023-12-14T03:06:57;0.00;;;0.00;;
15486;SDS011;7845;53.698;10.078;2023-12-14T03:09:22;0.67;;;0.67;;
15486;SDS011;7845;53.698;10.078;2023-12-14T03:11:48;0.00;;;0.00;;
15486;SDS011;7845;53.698;10.078;2023-12-14T03:14:14;0.33;;;0.33;;
15486;SDS011;7845;53.698;10.078;2023-12-14T03:16:39;0.67;;;0.33;;
15486;SDS011;7845;53.698;10.078;2023-12-14T03:19:05;0.00;;;0.00;;
15486;SDS011;7845;53.698;10.078;2023-12-14T03:21:30;0.00;;;0.00;;
15486;SDS011;7845;53.698;10.078;2023-12-14T03:23:56;0.00;;;0.00;;
15486;SDS011;7845;53.698;10.078;2023-12-14T03:26:22;1.00;;;1.00;;
15486;SDS011;7845;53.698;10.078;2023-12-14T03:28:47;0.67;;;0.67;;
15486;SDS011;7845;53.698;10.078;2023-12-14T03:31:13;1.00;;;1.00;;
15486;SDS011;7845;53.698;10.078;2023-12-14T03:33:39;0.67;;;0.67;;
15486;SDS011;7845;53.698;10.078;2023-12-14T03:36:05;0.75;;;0.75;;
15486;SDS011;7845;53.698;10.078;2023-12-14T03:38:31;0.00;;;0.00;;
15486;SDS011;7845;53.698;10.078;2023-12-14T03:40:57;1.00;;;1.00;;
15486;SDS011;7845;53.698;10.078;2023-12-14T03:43:22;1.67;;;1.67;;
15486;SDS011;7845;53.698;10.078;2023-12-14T03:45:48;1.00;;;1.00;;
15486;SDS011;7845;53.698;10.078;2023-12-14T03:48:14;1.00;;;1.00;;
15486;SDS011;7845;53.698;10.078;2023-12-14T03:50:39;1.00;;;0.00;;
15486;SDS011;7845;53.698;10.078;2023-12-14T03:53:05;0.00;;;0.00;;
15486;SDS011;7845;53.698;10.078;2023-12-14T03:55:30;0.33;;;0.33;;
15486;SDS011;7845;53.698;10.078;2023-12-14T03:57:55;1.00;;;0.00;;
15486;SDS011;7845;53.698;10.078;2023-12-14T04:00:21;1.00;;;1.00;;
15486;SDS011;7845;53.698;10.078;2023-12-14T04:02:46;1.00;;;0.67;;
15486;SDS011;7845;53.698;10.078;2023-12-14T04:05:11;1.00;;;1.00;;
15486;SDS011;7845;53.698;10.078;2023-12-14T04:07:37;1.67;;;1.00;;
15486;SDS011;7845;53.698;10.078;2023-12-14T04:10:05;1.00;;;0.00;;
15486;SDS011;7845;53.698;10.078;2023-12-14T04:12:35;0.75;;;0.75;;
15486;SDS011;7845;53.698;10.078;2023-12-14T04:15:01;1.00;;;1.00;;
15486;SDS011;7845;53.698;10.078;2023-12-14T04:17:27;1.00;;;0.00;;
15486;SDS011;7845;53.698;10.078;2023-12-14T04:19:53;1.00;;;1.00;;
15486;SDS011;7845;53.698;10.078;2023-12-14T04:22:18;3.67;;;3.33;;
15486;SDS011;7845;53.698;10.078;2023-12-14T04:24:44;1.67;;;0.33;;
15486;SDS011;7845;53.698;10.078;2023-12-14T04:27:10;1.00;;;1.00;;
15486;SDS011;7845;53.698;10.078;2023-12-14T04:29:35;3.00;;;2.33;;
15486;SDS011;7845;53.698;10.078;2023-12-14T04:32:01;1.00;;;1.00;;
15486;SDS011;7845;53.698;10.078;2023-12-14T04:34:27;1.00;;;1.00;;
15486;SDS011;7845;53.698;10.078;2023-12-14T04:36:52;1.00;;;1.00;;
15486;SDS011;7845;53.698;10.078;2023-12-14T04:39:22;2.00;;;1.50;;
15486;SDS011;7845;53.698;10.078;2023-12-14T04:41:47;1.00;;;1.00;;
15486;SDS011;7845;53.698;10.078;2023-12-14T04:44:13;3.00;;;3.00;;
15486;SDS011;7845;53.698;10.078;2023-12-14T04:46:38;2.67;;;1.67;;
15486;SDS011;7845;53.698;10.078;2023-12-14T04:49:03;2.33;;;1.00;;
15486;SDS011;7845;53.698;10.078;2023-12-14T04:51:29;3.00;;;1.00;;
15486;SDS011;7845;53.698;10.078;2023-12-14T04:53:54;2.33;;;2.33;;
15486;SDS011;7845;53.698;10.078;2023-12-14T04:56:20;1.00;;;0.33;;
15486;SDS011;7845;53.698;10.078;2023-12-14T04:58:45;2.33;;;2.33;;
15486;SDS011;7845;53.698;10.078;2023-12-14T05:01:11;1.67;;;1.67;;
15486;SDS011;7845;53.698;10.078;2023-12-14T05:03:37;3.00;;;3.00;;
15486;SDS011;7845;53.698;10.078;2023-12-14T05:06:02;0.33;;;0.00;;
15486;SDS011;7845;53.698;10.078;2023-12-14T05:08:27;1.00;;;1.00;;
15486;SDS011;7845;53.698;10.078;2023-12-14T05:10:53;3.33;;;3.33;;
15486;SDS011;7845;53.698;10.078;2023-12-14T05:13:18;3.00;;;3.00;;
15486;SDS011;7845;53.698;10.078;2023-12-14T05:15:43;6.00;;;4.00;;
15486;SDS011;7845;53.698;10.078;2023-12-14T05:18:08;3.00;;;3.00;;
15486;SDS011;7845;53.698;10.078;2023-12-14T05:20:34;4.00;;;4.00;;
15486;SDS011;7845;53.698;10.078;2023-12-14T05:23:00;4.00;;;4.00;;
15486;SDS011;7845;53.698;10.078;2023-12-14T05:25:26;3.00;;;3.00;;
15486;SDS011;7845;53.698;10.078;2023-12-14T05:27:51;1.00;;;1.00;;
15486;SDS011;7845;53.698;10.078;2023-12-14T05:30:17;3.67;;;3.33;;
15486;SDS011;7845;53.698;10.078;2023-12-14T05:32:43;3.67;;;3.67;;
15486;SDS011;7845;53.698;10.078;2023-12-14T05:35:08;0.00;;;0.00;;
15486;SDS011;7845;53.698;10.078;2023-12-14T05:37:35;3.00;;;1.00;;
15486;SDS011;7845;53.698;10.078;2023-12-14T05:40:01;3.00;;;3.00;;
15486;SDS011;7845;53.698;10.078;2023-12-14T05:42:27;3.00;;;3.00;;
15486;SDS011;7845;53.698;10.078;2023-12-14T05:44:52;4.00;;;3.33;;
15486;SDS011;7845;53.698;10.078;2023-12-14T05:47:18;1.00;;;1.00;;
15486;SDS011;7845;53.698;10.078;2023-12-14T05:49:43;3.33;;;3.33;;
15486;SDS011;7845;53.698;10.078;2023-12-14T05:52:09;4.00;;;3.67;;
15486;SDS011;7845;53.698;10.078;2023-12-14T05:54:37;3.67;;;3.00;;
15486;SDS011;7845;53.698;10.078;2023-12-14T05:57:04;4.67;;;4.00;;
15486;SDS011;7845;53.698;10.078;2023-12-14T05:59:30;4.00;;;4.00;;
15486;SDS011;7845;53.698;10.078;2023-12-14T06:01:57;4.00;;;4.00;;
15486;SDS011;7845;53.698;10.078;2023-12-14T06:04:24;1.67;;;1.67;;
15486;SDS011;7845;53.698;10.078;2023-12-14T06:06:50;4.00;;;3.00;;
15486;SDS011;7845;53.698;10.078;2023-12-14T06:09:15;3.00;;;3.00;;
15486;SDS011;7845;53.698;10.078;2023-12-14T06:11:43;3.25;;;3.00;;
15486;SDS011;7845;53.698;10.078;2023-12-14T06:14:08;4.00;;;3.00;;
15486;SDS011;7845;53.698;10.078;2023-12-14T06:16:33;4.67;;;3.00;;
15486;SDS011;7845;53.698;10.078;2023-12-14T06:18:59;5.33;;;3.00;;
15486;SDS011;7845;53.698;10.078;2023-12-14T06:21:24;3.00;;;3.00;;
15486;SDS011;7845;53.698;10.078;2023-12-14T06:23:53;3.33;;;3.33;;
15486;SDS011;7845;53.698;10.078;2023-12-14T06:26:19;5.33;;;4.00;;
15486;SDS011;7845;53.698;10.078;2023-12-14T06:28:44;4.00;;;3.33;;
15486;SDS011;7845;53.698;10.078;2023-12-14T06:31:13;6.33;;;4.00;;
15486;SDS011;7845;53.698;10.078;2023-12-14T06:33:39;3.00;;;3.00;;
15486;SDS011;7845;53.698;10.078;2023-12-14T06:36:04;3.33;;;3.00;;
15486;SDS011;7845;53.698;10.078;2023-12-14T06:38:31;3.00;;;3.00;;
15486;SDS011;7845;53.698;10.078;2023-12-14T06:40:56;6.67;;;4.00;;
15486;SDS011;7845;53.698;10.078;2023-12-14T06:43:21;6.33;;;5.33;;
15486;SDS011;7845;53.698;10.078;2023-12-14T06:45:46;4.67;;;3.00;;
15486;SDS011;7845;53.698;10.078;2023-12-14T06:48:12;6.00;;;6.00;;
15486;SDS011;7845;53.698;10.078;2023-12-14T06:50:37;4.00;;;4.00;;
15486;SDS011;7845;53.698;10.078;2023-12-14T06:53:02;6.00;;;4.00;;
15486;SDS011;7845;53.698;10.078;2023-12-14T06:55:28;5.33;;;5.33;;
15486;SDS011;7845;53.698;10.078;2023-12-14T06:57:53;3.67;;;3.33;;
15486;SDS011;7845;53.698;10.078;2023-12-14T07:00:18;6.33;;;6.00;;
15486;SDS011;7845;53.698;10.078;2023-12-14T07:02:44;7.67;;;6.33;;
15486;SDS011;7845;53.698;10.078;2023-12-14T07:05:09;9.00;;;6.67;;
15486;SDS011;7845;53.698;10.078;2023-12-14T07:07:35;4.67;;;4.67;;
15486;SDS011;7845;53.698;10.078;2023-12-14T07:10:01;4.67;;;4.67;;
15486;SDS011;7845;53.698;10.078;2023-12-14T07:12:27;5.33;;;4.00;;
15486;SDS011;7845;53.698;10.078;2023-12-14T07:14:52;4.00;;;4.00;;
15486;SDS011;7845;53.698;10.078;2023-12-14T07:17:17;4.00;;;4.00;;
15486;SDS011;7845;53.698;10.078;2023-12-14T07:19:42;4.33;;;3.67;;
15486;SDS011;7845;53.698;10.078;2023-12-14T07:22:08;6.33;;;6.00;;
15486;SDS011;7845;53.698;10.078;2023-12-14T07:24:33;6.00;;;4.00;;
15486;SDS011;7845;53.698;10.078;2023-12-14T07:26:58;7.00;;;6.00;;
15486;SDS011;7845;53.698;10.078;2023-12-14T07:29:23;4.67;;;3.00;;
15486;SDS011;7845;53.698;10.078;2023-12-14T07:31:49;6.67;;;6.33;;
15486;SDS011;7845;53.698;10.078;2023-12-14T07:34:14;4.00;;;4.00;;
15486;SDS011;7845;53.698;10.078;2023-12-14T07:36:39;5.33;;;4.67;;
15486;SDS011;7845;53.698;10.078;2023-12-14T07:39:05;5.33;;;4.67;;
15486;SDS011;7845;53.698;10.078;2023-12-14T07:41:31;4.00;;;4.00;;
15486;SDS011;7845;53.698;10.078;2023-12-14T07:43:57;6.00;;;6.00;;
15486;SDS011;7845;53.698;10.078;2023-12-14T07:46:23;6.00;;;6.00;;
15486;SDS011;7845;53.698;10.078;2023-12-14T07:48:48;5.33;;;5.33;;
15486;SDS011;7845;53.698;10.078;2023-12-14T07:51:14;5.33;;;5.33;;
15486;SDS011;7845;53.698;10.078;2023-12-14T07:53:39;1.00;;;0.33;;
15486;SDS011;7845;53.698;10.078;2023-12-14T07:56:06;6.67;;;6.00;;
15486;SDS011;7845;53.698;10.078;2023-12-14T07:58:32;6.67;;;6.00;;
15486;SDS011;7845;53.698;10.078;2023-12-14T08:00:57;6.00;;;4.67;;
15486;SDS011;7845;53.698;10.078;2023-12-14T08:03:22;3.67;;;3.67;;
15486;SDS011;7845;53.698;10.078;2023-12-14T08:05:47;3.00;;;3.00;;
15486;SDS011;7845;53.698;10.078;2023-12-14T08:08:13;4.00;;;4.00;;
15486;SDS011;7845;53.698;10.078;2023-12-14T08:10:38;4.67;;;4.00;;
15486;SDS011;7845;53.698;10.078;2023-12-14T08:13:03;6.00;;;4.00;;
15486;SDS011;7845;53.698;10.078;2023-12-14T08:15:28;6.00;;;4.00;;
15486;SDS011;7845;53.698;10.078;2023-12-14T08:17:54;3.67;;;3.00;;
15486;SDS011;7845;53.698;10.078;2023-12-14T08:20:20;6.00;;;4.00;;
15486;SDS011;7845;53.698;10.078;2023-12-14T08:22:45;4.00;;;3.33;;
15486;SDS011;7845;53.698;10.078;2023-12-14T08:25:14;3.67;;;3.00;;
15486;SDS011;7845;53.698;10.078;2023-12-14T08:27:40;4.00;;;4.00;;
15486;SDS011;7845;53.698;10.078;2023-12-14T08:30:06;1.50;;;1.00;;
15486;SDS011;7845;53.698;10.078;2023-12-14T08:32:32;6.00;;;6.00;;
15486;SDS011;7845;53.698;10.078;2023-12-14T08:34:57;0.33;;;0.00;;
15486;SDS011;7845;53.698;10.078;2023-12-14T08:37:23;3.00;;;3.00;;
15486;SDS011;7845;53.698;10.078;2023-12-14T08:39:48;3.33;;;3.33;;
15486;SDS011;7845;53.698;10.078;2023-12-14T08:42:13;4.00;;;4.00;;
15486;SDS011;7845;53.698;10.078;2023-12-14T08:44:39;6.00;;;6.00;;
15486;SDS011;7845;53.698;10.078;2023-12-14T08:47:05;3.00;;;3.00;;
15486;SDS011;7845;53.698;10.078;2023-12-14T08:49:30;4.00;;;4.00;;
15486;SDS011;7845;53.698;10.078;2023-12-14T08:51:55;4.00;;;4.00;;
15486;SDS011;7845;53.698;10.078;2023-12-14T08:54:21;6.33;;;4.33;;
15486;SDS011;7845;53.698;10.078;2023-12-14T08:56:46;6.67;;;6.00;;
15486;SDS011;7845;53.698;10.078;2023-12-14T08:59:13;3.33;;;3.00;;
15486;SDS011;7845;53.698;10.078;2023-12-14T09:01:38;6.00;;;4.00;;
15486;SDS011;7845;53.698;10.078;2023-12-14T09:04:04;3.00;;;3.00;;
15486;SDS011;7845;53.698;10.078;2023-12-14T09:06:29;4.00;;;4.00;;
15486;SDS011;7845;53.698;10.078;2023-12-14T09:08:55;1.00;;;1.00;;
15486;SDS011;7845;53.698;10.078;2023-12-14T09:11:20;3.33;;;3.33;;
15486;SDS011;7845;53.698;10.078;2023-12-14T09:13:46;3.67;;;3.67;;
15486;SDS011;7845;53.698;10.078;2023-12-14T09:16:11;9.00;;;6.00;;
15486;SDS011;7845;53.698;10.078;2023-12-14T09:18:37;6.67;;;6.00;;
15486;SDS011;7845;53.698;10.078;2023-12-14T09:21:02;4.67;;;4.67;;
15486;SDS011;7845;53.698;10.078;2023-12-14T09:23:29;8.33;;;6.67;;
15486;SDS011;7845;53.698;10.078;2023-12-14T09:25:54;5.33;;;3.67;;
15486;SDS011;7845;53.698;10.078;2023-12-14T09:28:21;5.00;;;4.00;;
15486;SDS011;7845;53.698;10.078;2023-12-14T09:30:46;6.67;;;4.00;;
15486;SDS011;7845;53.698;10.078;2023-12-14T09:33:11;4.00;;;4.00;;
15486;SDS011;7845;53.698;10.078;2023-12-14T09:35:36;3.33;;;3.00;;
15486;SDS011;7845;53.698;10.078;2023-12-14T09:38:02;3.00;;;3.00;;
15486;SDS011;7845;53.698;10.078;2023-12-14T09:40:28;5.33;;;4.00;;
15486;SDS011;7845;53.698;10.078;2023-12-14T09:42:54;5.33;;;4.00;;
15486;SDS011;7845;53.698;10.078;2023-12-14T09:45:20;4.67;;;4.67;;
15486;SDS011;7845;53.698;10.078;2023-12-14T09:47:49;6.00;;;5.33;;
15486;SDS011;7845;53.698;10.078;2023-12-14T09:50:14;4.00;;;4.00;;
15486;SDS011;7845;53.698;10.078;2023-12-14T09:52:41;5.33;;;4.00;;
15486;SDS011;7845;53.698;10.078;2023-12-14T09:55:10;7.00;;;6.00;;
15486;SDS011;7845;53.698;10.078;2023-12-14T09:57:37;2.00;;;1.00;;
15486;SDS011;7845;53.698;10.078;2023-12-14T10:00:03;4.00;;;4.00;;
15486;SDS011;7845;53.698;10.078;2023-12-14T10:02:33;4.00;;;4.00;;
15486;SDS011;7845;53.698;10.078;2023-12-14T10:04:58;4.00;;;3.67;;
15486;SDS011;7845;53.698;10.078;2023-12-14T10:07:24;3.00;;;3.00;;
15486;SDS011;7845;53.698;10.078;2023-12-14T10:09:50;6.00;;;4.00;;
15486;SDS011;7845;53.698;10.078;2023-12-14T10:12:17;4.67;;;4.67;;
15486;SDS011;7845;53.698;10.078;2023-12-14T10:14:42;3.67;;;3.00;;
15486;SDS011;7845;53.698;10.078;2023-12-14T10:17:16;4.00;;;3.00;;
15486;SDS011;7845;53.698;10.078;2023-12-14T10:19:43;6.67;;;6.67;;
15486;SDS011;7845;53.698;10.078;2023-12-14T10:22:10;4.67;;;3.67;;
15486;SDS011;7845;53.698;10.078;2023-12-14T10:24:36;5.67;;;5.67;;
15486;SDS011;7845;53.698;10.078;2023-12-14T10:27:05;3.00;;;3.00;;
15486;SDS011;7845;53.698;10.078;2023-12-14T10:29:32;4.00;;;4.00;;
15486;SDS011;7845;53.698;10.078;2023-12-14T10:32:05;6.67;;;6.33;;
15486;SDS011;7845;53.698;10.078;2023-12-14T10:34:34;6.00;;;4.25;;
15486;SDS011;7845;53.698;10.078;2023-12-14T10:37:00;5.25;;;4.25;;
15486;SDS011;7845;53.698;10.078;2023-12-14T10:39:26;6.00;;;4.00;;
15486;SDS011;7845;53.698;10.078;2023-12-14T10:41:54;5.33;;;4.00;;
15486;SDS011;7845;53.698;10.078;2023-12-14T10:44:23;4.25;;;3.75;;
15486;SDS011;7845;53.698;10.078;2023-12-14T10:46:53;6.50;;;5.25;;
15486;SDS011;7845;53.698;10.078;2023-12-14T10:49:21;4.75;;;4.75;;
15486;SDS011;7845;53.698;10.078;2023-12-14T10:51:49;4.00;;;4.00;;
15486;SDS011;7845;53.698;10.078;2023-12-14T10:54:15;5.25;;;4.75;;
15486;SDS011;7845;53.698;10.078;2023-12-14T10:56:42;6.50;;;6.50;;
15486;SDS011;7845;53.698;10.078;2023-12-14T10:59:07;6.33;;;5.33;;
15486;SDS011;7845;53.698;10.078;2023-12-14T11:01:32;8.67;;;7.00;;
15486;SDS011;7845;53.698;10.078;2023-12-14T11:04:00;4.75;;;4.00;;
15486;SDS011;7845;53.698;10.078;2023-12-14T11:06:29;7.00;;;6.00;;
15486;SDS011;7845;53.698;10.078;2023-12-14T11:11:38;6.33;;;4.33;;
15486;SDS011;7845;53.698;10.078;2023-12-14T11:14:07;7.25;;;7.25;;
15486;SDS011;7845;53.698;10.078;2023-12-14T11:16:35;8.50;;;8.50;;
15486;SDS011;7845;53.698;10.078;2023-12-14T11:21:45;6.00;;;6.00;;
15486;SDS011;7845;53.698;10.078;2023-12-14T11:24:11;5.00;;;4.00;;
15486;SDS011;7845;53.698;10.078;2023-12-14T11:26:37;5.25;;;4.00;;
15486;SDS011;7845;53.698;10.078;2023-12-14T11:29:02;4.33;;;4.33;;
15486;SDS011;7845;53.698;10.078;2023-12-14T11:31:29;6.50;;;6.50;;
15486;SDS011;7845;53.698;10.078;2023-12-14T11:33:55;4.00;;;4.00;;
15486;SDS011;7845;53.698;10.078;2023-12-14T11:36:21;6.00;;;5.75;;
15486;SDS011;7845;53.698;10.078;2023-12-14T11:38:48;4.67;;;4.67;;
15486;SDS011;7845;53.698;10.078;2023-12-14T11:41:13;3.67;;;3.67;;
15486;SDS011;7845;53.698;10.078;2023-12-14T11:43:43;6.33;;;4.00;;
15486;SDS011;7845;53.698;10.078;2023-12-14T11:46:10;4.25;;;4.00;;
15486;SDS011;7845;53.698;10.078;2023-12-14T11:48:35;6.75;;;5.75;;
15486;SDS011;7845;53.698;10.078;2023-12-14T11:51:02;4.00;;;4.00;;
15486;SDS011;7845;53.698;10.078;2023-12-14T11:53:27;8.33;;;8.33;;
15486;SDS011;7845;53.698;10.078;2023-12-14T11:55:54;4.25;;;4.25;;
15486;SDS011;7845;53.698;10.078;2023-12-14T11:58:20;8.33;;;7.67;;
15486;SDS011;7845;53.698;10.078;2023-12-14T12:00:45;1.67;;;1.33;;
15486;SDS011;7845;53.698;10.078;2023-12-14T12:03:21;7.00;;;4.75;;
15486;SDS011;7845;53.698;10.078;2023-12-14T12:05:47;7.25;;;6.50;;
15486;SDS011;7845;53.698;10.078;2023-12-14T12:08:15;7.25;;;6.75;;
15486;SDS011;7845;53.698;10.078;2023-12-14T12:10:43;6.25;;;6.25;;
15486;SDS011;7845;53.698;10.078;2023-12-14T12:13:12;4.50;;;4.50;;
15486;SDS011;7845;53.698;10.078;2023-12-14T12:15:44;7.00;;;5.33;;
15486;SDS011;7845;53.698;10.078;2023-12-14T12:18:11;6.33;;;6.33;;
15486;SDS011;7845;53.698;10.078;2023-12-14T12:20:39;4.00;;;4.00;;
15486;SDS011;7845;53.698;10.078;2023-12-14T12:23:05;8.33;;;5.33;;
15486;SDS011;7845;53.698;10.078;2023-12-14T12:25:32;6.25;;;6.25;;
15486;SDS011;7845;53.698;10.078;2023-12-14T12:27:59;9.00;;;6.50;;
15486;SDS011;7845;53.698;10.078;2023-12-14T12:30:25;4.00;;;3.33;;
15486;SDS011;7845;53.698;10.078;2023-12-14T12:32:51;5.33;;;4.00;;
15486;SDS011;7845;53.698;10.078;2023-12-14T12:35:18;4.33;;;4.00;;
15486;SDS011;7845;53.698;10.078;2023-12-14T12:37:44;4.50;;;4.00;;
15486;SDS011;7845;53.698;10.078;2023-12-14T12:40:10;7.00;;;5.67;;
15486;SDS011;7845;53.698;10.078;2023-12-14T12:42:36;0.25;;;0.00;;
15486;SDS011;7845;53.698;10.078;2023-12-14T12:45:02;0.67;;;0.00;;
15486;SDS011;7845;53.698;10.078;2023-12-14T12:47:27;7.00;;;6.00;;
15486;SDS011;7845;53.698;10.078;2023-12-14T12:49:53;6.00;;;4.00;;
15486;SDS011;7845;53.698;10.078;2023-12-14T12:52:19;7.00;;;7.00;;
15486;SDS011;7845;53.698;10.078;2023-12-14T12:54:44;11.67;;;9.33;;
15486;SDS011;7845;53.698;10.078;2023-12-14T12:57:10;6.00;;;5.33;;
15486;SDS011;7845;53.698;10.078;2023-12-14T12:59:35;5.67;;;4.33;;
15486;SDS011;7845;53.698;10.078;2023-12-14T13:02:00;4.00;;;2.33;;
15486;SDS011;7845;53.698;10.078;2023-12-14T13:04:27;6.25;;;6.25;;
15486;SDS011;7845;53.698;10.078;2023-12-14T13:06:55;7.00;;;7.00;;
15486;SDS011;7845;53.698;10.078;2023-12-14T13:09:21;7.00;;;6.00;;
15486;SDS011;7845;53.698;10.078;2023-12-14T13:11:46;5.33;;;5.33;;
15486;SDS011;7845;53.698;10.078;2023-12-14T13:14:12;4.00;;;4.00;;
15486;SDS011;7845;53.698;10.078;2023-12-14T13:16:37;5.33;;;4.00;;
15486;SDS011;7845;53.698;10.078;2023-12-14T13:19:04;6.00;;;5.25;;
15486;SDS011;7845;53.698;10.078;2023-12-14T13:21:31;7.00;;;7.00;;
15486;SDS011;7845;53.698;10.078;2023-12-14T13:23:58;4.00;;;4.00;;
15486;SDS011;7845;53.698;10.078;2023-12-14T13:26:23;10.00;;;6.67;;
15486;SDS011;7845;53.698;10.078;2023-12-14T13:28:49;6.00;;;4.33;;
15486;SDS011;7845;53.698;10.078;2023-12-14T13:31:16;5.75;;;5.25;;
15486;SDS011;7845;53.698;10.078;2023-12-14T13:33:41;5.67;;;5.67;;
15486;SDS011;7845;53.698;10.078;2023-12-14T13:36:06;3.33;;;3.33;;
15486;SDS011;7845;53.698;10.078;2023-12-14T13:38:33;4.50;;;4.25;;
15486;SDS011;7845;53.698;10.078;2023-12-14T13:41:01;4.50;;;4.50;;
15486;SDS011;7845;53.698;10.078;2023-12-14T13:43:28;4.00;;;3.50;;
15486;SDS011;7845;53.698;10.078;2023-12-14T13:45:54;5.00;;;4.25;;
15486;SDS011;7845;53.698;10.078;2023-12-14T13:48:22;5.25;;;4.75;;
15486;SDS011;7845;53.698;10.078;2023-12-14T13:50:48;5.33;;;4.00;;
15486;SDS011;7845;53.698;10.078;2023-12-14T13:53:13;2.33;;;2.33;;
15486;SDS011;7845;53.698;10.078;2023-12-14T13:55:39;4.33;;;4.00;;
15486;SDS011;7845;53.698;10.078;2023-12-14T13:58:04;6.00;;;6.00;;
15486;SDS011;7845;53.698;10.078;2023-12-14T14:00:30;5.33;;;5.33;;
15486;SDS011;7845;53.698;10.078;2023-12-14T14:02:55;6.00;;;4.00;;
15486;SDS011;7845;53.698;10.078;2023-12-14T14:05:21;2.33;;;2.33;;
15486;SDS011;7845;53.698;10.078;2023-12-14T14:07:47;4.33;;;3.33;;
15486;SDS011;7845;53.698;10.078;2023-12-14T14:10:12;3.67;;;3.67;;
15486;SDS011;7845;53.698;10.078;2023-12-14T14:12:38;5.67;;;4.00;;
15486;SDS011;7845;53.698;10.078;2023-12-14T14:15:03;3.33;;;3.33;;
15486;SDS011;7845;53.698;10.078;2023-12-14T14:17:30;4.00;;;4.00;;
15486;SDS011;7845;53.698;10.078;2023-12-14T14:19:55;4.00;;;3.00;;
15486;SDS011;7845;53.698;10.078;2023-12-14T14:22:20;3.67;;;3.67;;
15486;SDS011;7845;53.698;10.078;2023-12-14T14:24:46;1.00;;;1.00;;
15486;SDS011;7845;53.698;10.078;2023-12-14T14:27:11;6.00;;;4.00;;
15486;SDS011;7845;53.698;10.078;2023-12-14T14:29:36;5.33;;;4.00;;
15486;SDS011;7845;53.698;10.078;2023-12-14T14:32:01;3.00;;;3.00;;
15486;SDS011;7845;53.698;10.078;2023-12-14T14:34:27;4.00;;;4.00;;
15486;SDS011;7845;53.698;10.078;2023-12-14T14:36:52;4.00;;;3.33;;
15486;SDS011;7845;53.698;10.078;2023-12-14T14:39:17;3.67;;;3.00;;
15486;SDS011;7845;53.698;10.078;2023-12-14T14:41:43;5.33;;;4.33;;
15486;SDS011;7845;53.698;10.078;2023-12-14T14:44:12;4.00;;;3.25;;
15486;SDS011;7845;53.698;10.078;2023-12-14T14:46:37;3.00;;;3.00;;
15486;SDS011;7845;53.698;10.078;2023-12-14T14:49:03;6.00;;;6.00;;